Time;durP1;ratioP1;P1;durP2;ratioP2;P2;SDS_P1;SDS_P2;PMS_P1;PMS_P2;Temp;Humidity;BMP_temperature;BMP_pressure;BME280_temperature;BME280_humidity;BME280_pressure;Samples;Min_cycle;Max_cycle;Signal;HPM_P1;HPM_P2
2022/10/14 00:01:59;;;;;;;17.27;15.57;;;16.10;99.90;;;;;;5013078;28;20649;-68
2022/10/14 00:04:25;;;;;;;16.77;14.30;;;16.10;99.90;;;;;;5014751;28;20221;-74
2022/10/14 00:06:50;;;;;;;15.87;14.37;;;16.10;99.90;;;;;;5023812;28;20221;-68
2022/10/14 00:09:16;;;;;;;17.47;15.13;;;16.10;99.90;;;;;;5032721;28;20177;-69
2022/10/14 00:11:42;;;;;;;18.23;14.53;;;16.10;99.90;;;;;;5032273;28;20177;-68
2022/10/14 00:14:11;;;;;;;16.73;15.03;;;16.10;99.90;;;;;;5032530;28;20243;-69
2022/10/14 00:16:40;;;;;;;15.57;13.80;;;16.10;99.90;;;;;;5031751;28;20316;-69
2022/10/14 00:19:06;;;;;;;15.90;14.33;;;16.20;99.90;;;;;;5032696;28;20457;-68
2022/10/14 00:21:32;;;;;;;19.17;15.70;;;16.10;99.90;;;;;;5030729;28;20502;-69
2022/10/14 00:23:58;;;;;;;15.57;14.07;;;16.10;99.90;;;;;;5032656;28;20192;-68
2022/10/14 00:26:27;;;;;;;16.57;14.90;;;16.10;99.90;;;;;;5032415;28;20464;-68
2022/10/14 00:28:54;;;;;;;16.30;14.60;;;16.10;99.90;;;;;;4964312;28;20477;-68
2022/10/14 00:31:20;;;;;;;18.90;15.40;;;16.10;99.90;;;;;;5032432;28;20425;-68
2022/10/14 00:33:46;;;;;;;17.30;15.47;;;16.20;99.90;;;;;;5030846;28;20787;-68
2022/10/14 00:36:14;;;;;;;16.57;14.87;;;16.10;99.90;;;;;;5032397;28;20318;-68
2022/10/14 00:38:40;;;;;;;17.57;14.70;;;16.20;99.90;;;;;;5031767;28;20912;-69
2022/10/14 00:41:07;;;;;;;16.40;14.07;;;16.10;99.90;;;;;;5033035;28;20415;-68
2022/10/14 00:43:59;;;;;;;14.70;13.23;;;16.20;99.90;;;;;;5032315;28;20400;-69
2022/10/14 00:46:28;;;;;;;16.07;13.70;;;16.10;99.90;;;;;;5032446;28;20476;-68
2022/10/14 00:48:56;;;;;;;15.17;12.87;;;16.10;99.90;;;;;;5032467;28;20423;-68
2022/10/14 00:51:22;;;;;;;14.97;13.57;;;16.10;99.90;;;;;;5032764;28;20409;-68
2022/10/14 00:53:48;;;;;;;16.00;14.30;;;16.10;99.90;;;;;;5032414;28;20484;-68
2022/10/14 00:56:18;;;;;;;17.90;14.80;;;16.10;99.90;;;;;;5032480;28;20223;-68
2022/10/14 00:58:44;;;;;;;15.27;13.70;;;16.10;99.90;;;;;;5032115;28;20406;-68
2022/10/14 01:01:10;;;;;;;18.33;14.10;;;16.10;99.90;;;;;;5032744;28;20437;-68
2022/10/14 01:03:36;;;;;;;15.57;14.17;;;16.10;99.90;;;;;;5031208;28;20474;-68
2022/10/14 01:06:20;;;;;;;14.70;13.20;;;16.10;99.90;;;;;;5032318;28;20567;-68
2022/10/14 01:09:01;;;;;;;13.70;12.40;;;16.10;99.90;;;;;;5031356;28;20514;-68
2022/10/14 01:11:50;;;;;;;13.33;12.03;;;16.10;99.90;;;;;;5032605;28;20390;-68
2022/10/14 01:14:40;;;;;;;14.60;13.00;;;16.10;99.90;;;;;;5032700;28;20852;-69
2022/10/14 01:17:18;;;;;;;13.67;12.37;;;16.10;99.90;;;;;;5032600;28;20397;-68
2022/10/14 01:19:56;;;;;;;13.63;12.23;;;16.10;99.90;;;;;;5014262;28;20802;-68
2022/10/14 01:22:35;;;;;;;13.33;12.10;;;16.10;99.90;;;;;;5032412;28;20427;-68
2022/10/14 01:25:07;;;;;;;13.20;12.00;;;16.10;99.90;;;;;;5032650;28;20443;-68
2022/10/14 01:27:46;;;;;;;17.83;13.57;;;16.10;99.90;;;;;;5014234;28;20882;-68
2022/10/14 01:30:23;;;;;;;14.10;12.80;;;16.10;99.90;;;;;;5032414;28;21001;-68
2022/10/14 01:33:24;;;;;;;14.57;13.03;;;16.10;99.90;;;;;;5030726;28;20438;-68
2022/10/14 01:36:03;;;;;;;14.27;11.83;;;16.10;99.90;;;;;;5023627;28;20618;-69
2022/10/14 01:38:57;;;;;;;14.17;12.83;;;16.10;99.90;;;;;;5032484;28;20511;-68
2022/10/14 01:41:34;;;;;;;13.33;12.13;;;16.10;99.90;;;;;;5009134;28;20819;-68
2022/10/14 01:44:09;;;;;;;14.07;12.77;;;16.10;99.90;;;;;;5031236;28;20501;-68
2022/10/14 01:46:37;;;;;;;14.47;12.97;;;16.10;99.90;;;;;;5031800;28;20477;-69
2022/10/14 01:49:08;;;;;;;13.60;12.30;;;16.20;99.90;;;;;;5014807;28;20451;-68
2022/10/14 01:51:45;;;;;;;14.10;12.70;;;16.10;99.90;;;;;;5034716;28;20392;-69
2022/10/14 01:54:20;;;;;;;12.87;11.67;;;16.20;99.90;;;;;;5035705;28;20475;-68
2022/10/14 01:56:47;;;;;;;13.90;12.50;;;16.10;99.90;;;;;;5034947;28;20910;-68
2022/10/14 01:59:17;;;;;;;15.00;13.50;;;16.10;99.90;;;;;;5017944;28;20906;-68
2022/10/14 02:01:42;;;;;;;14.43;12.93;;;16.10;99.90;;;;;;5035284;28;20399;-68
2022/10/14 02:04:20;;;;;;;14.43;13.03;;;16.10;99.90;;;;;;5034745;28;20450;-68
2022/10/14 02:07:33;;;;;;;13.50;12.20;;;16.20;99.90;;;;;;5035160;28;20225;-69
2022/10/14 02:10:25;;;;;;;12.80;11.60;;;16.10;99.90;;;;;;5022113;28;20452;-68
2022/10/14 02:12:56;;;;;;;13.00;11.60;;;16.20;99.90;;;;;;5035066;28;20416;-68
2022/10/14 02:15:54;;;;;;;13.70;11.90;;;16.10;99.90;;;;;;5035508;28;20517;-68
2022/10/14 02:18:42;;;;;;;13.30;12.00;;;16.20;99.90;;;;;;5035317;28;20892;-68
2022/10/14 02:21:32;;;;;;;14.00;12.60;;;16.10;99.90;;;;;;5035554;28;20409;-68
2022/10/14 02:24:08;;;;;;;13.10;11.87;;;16.10;99.90;;;;;;5035501;28;20409;-68
2022/10/14 02:26:36;;;;;;;14.40;13.00;;;16.20;99.90;;;;;;5034763;28;20463;-70
2022/10/14 02:29:03;;;;;;;13.83;12.50;;;16.10;99.90;;;;;;5035392;28;20408;-68
2022/10/14 02:31:31;;;;;;;14.30;12.80;;;16.20;99.90;;;;;;5035181;28;20419;-69
2022/10/14 02:34:01;;;;;;;14.87;13.10;;;16.20;99.90;;;;;;5034065;28;20546;-68
2022/10/14 02:36:28;;;;;;;13.80;12.40;;;16.10;99.90;;;;;;5035187;28;20412;-68
2022/10/14 02:38:58;;;;;;;14.00;12.60;;;16.20;99.90;;;;;;5034626;28;20830;-68
2022/10/14 02:41:27;;;;;;;14.03;12.63;;;16.10;99.90;;;;;;5035099;28;20401;-68
2022/10/14 02:43:53;;;;;;;15.17;12.57;;;16.10;99.90;;;;;;5034461;28;20410;-68
2022/10/14 02:46:20;;;;;;;14.83;12.37;;;16.10;99.90;;;;;;5035121;28;20952;-69
2022/10/14 02:48:46;;;;;;;14.13;12.73;;;16.10;99.90;;;;;;5033998;28;20186;-68
2022/10/14 02:51:11;;;;;;;13.13;11.83;;;16.10;99.90;;;;;;5034704;28;20461;-68
2022/10/14 02:53:37;;;;;;;13.33;12.00;;;16.20;99.90;;;;;;5034294;28;20173;-69
2022/10/14 02:56:03;;;;;;;14.23;12.83;;;16.10;99.90;;;;;;5034646;28;20180;-68
2022/10/14 02:58:28;;;;;;;12.90;11.70;;;16.10;99.90;;;;;;5034500;28;20603;-68
2022/10/14 03:00:54;;;;;;;12.60;11.30;;;16.10;99.90;;;;;;5034056;28;20384;-69
2022/10/14 03:03:20;;;;;;;12.87;11.67;;;16.10;99.90;;;;;;5033914;28;20186;-71
2022/10/14 03:05:46;;;;;;;14.03;12.73;;;16.10;99.90;;;;;;5033544;28;20657;-71
2022/10/14 03:08:12;;;;;;;12.30;11.20;;;16.10;99.90;;;;;;5034847;28;20436;-71
2022/10/14 03:10:38;;;;;;;13.17;11.80;;;16.10;99.90;;;;;;5033944;28;20447;-72
2022/10/14 03:13:03;;;;;;;12.80;11.50;;;16.10;99.90;;;;;;5034577;28;20235;-71
2022/10/14 03:15:29;;;;;;;13.30;11.57;;;16.10;99.90;;;;;;5034422;28;20260;-71
2022/10/14 03:17:55;;;;;;;13.17;11.80;;;16.10;99.90;;;;;;5034163;28;20181;-71
2022/10/14 03:20:20;;;;;;;13.77;12.47;;;16.10;99.90;;;;;;5034400;28;20177;-71
2022/10/14 03:22:46;;;;;;;13.90;12.60;;;16.10;99.90;;;;;;5033619;28;20414;-71
2022/10/14 03:25:12;;;;;;;14.03;12.20;;;16.10;99.90;;;;;;5034390;28;20233;-71
2022/10/14 03:27:38;;;;;;;14.27;12.90;;;16.10;99.90;;;;;;5033701;28;20424;-71
2022/10/14 03:30:04;;;;;;;14.70;12.70;;;16.10;99.90;;;;;;5034574;28;20170;-71
2022/10/14 03:32:30;;;;;;;16.77;12.37;;;16.10;99.90;;;;;;5033271;28;20203;-71
2022/10/14 03:34:56;;;;;;;12.80;11.60;;;16.10;99.90;;;;;;5033580;28;20415;-71
2022/10/14 03:37:22;;;;;;;12.47;11.17;;;16.10;99.90;;;;;;5016416;28;20181;-71
2022/10/14 03:39:48;;;;;;;12.30;11.00;;;16.10;99.90;;;;;;5033280;28;20543;-71
2022/10/14 03:42:13;;;;;;;11.67;10.50;;;16.10;99.90;;;;;;5034209;28;20178;-71
2022/10/14 03:44:39;;;;;;;10.90;9.80;;;16.10;99.90;;;;;;5032906;28;20201;-72
2022/10/14 03:47:05;;;;;;;10.77;9.77;;;16.10;99.90;;;;;;5033609;28;20178;-71
2022/10/14 03:49:30;;;;;;;11.30;10.30;;;16.00;99.90;;;;;;5033602;28;20170;-71
2022/10/14 03:51:56;;;;;;;9.70;8.80;;;16.10;99.90;;;;;;5033518;28;20209;-71
2022/10/14 03:54:22;;;;;;;9.77;8.97;;;16.00;99.90;;;;;;5033793;28;20606;-71
2022/10/14 03:56:47;;;;;;;9.10;8.40;;;16.10;99.90;;;;;;5032703;28;20181;-71
2022/10/14 03:59:13;;;;;;;10.00;9.10;;;16.10;99.90;;;;;;5033427;28;20253;-71
2022/10/14 04:01:39;;;;;;;10.23;9.33;;;16.00;99.90;;;;;;5014673;28;20181;-78
2022/10/14 04:04:04;;;;;;;9.10;8.30;;;16.10;99.90;;;;;;5015287;28;20247;-71
2022/10/14 04:06:30;;;;;;;9.47;8.67;;;16.00;99.90;;;;;;5033485;28;20335;-71
2022/10/14 04:08:56;;;;;;;9.20;8.37;;;16.00;99.90;;;;;;5032848;28;20178;-71
2022/10/14 04:11:21;;;;;;;8.17;7.37;;;16.10;99.90;;;;;;5033373;28;20180;-71
2022/10/14 04:13:47;;;;;;;8.17;7.47;;;16.00;99.90;;;;;;5018718;28;20696;-71
2022/10/14 04:16:13;;;;;;;8.47;7.77;;;16.10;99.90;;;;;;5013663;28;20257;-71
2022/10/14 04:18:38;;;;;;;7.07;6.47;;;16.10;99.90;;;;;;4996052;28;20182;-71
2022/10/14 04:21:08;;;;;;;7.47;6.87;;;16.00;99.90;;;;;;5012852;28;20174;-71
2022/10/14 04:23:34;;;;;;;8.20;7.60;;;16.00;99.90;;;;;;5013486;28;20205;-71
2022/10/14 04:26:04;;;;;;;7.90;7.30;;;16.00;99.90;;;;;;5012858;28;20543;-71
2022/10/14 04:28:31;;;;;;;7.87;7.27;;;16.10;99.90;;;;;;4995799;28;20418;-71
2022/10/14 04:30:57;;;;;;;10.93;7.70;;;16.00;99.90;;;;;;5013242;28;20433;-71
2022/10/14 04:33:22;;;;;;;8.10;7.50;;;16.00;99.90;;;;;;5029125;28;20424;-71
2022/10/14 04:35:48;;;;;;;7.83;7.23;;;16.00;99.90;;;;;;5031180;28;20182;-71
2022/10/14 04:38:14;;;;;;;9.43;8.67;;;16.00;99.90;;;;;;5015361;28;20524;-71
2022/10/14 04:40:43;;;;;;;8.17;7.50;;;16.00;99.90;;;;;;5032958;28;20404;-71
2022/10/14 04:43:09;;;;;;;8.80;8.00;;;16.00;99.90;;;;;;5032641;28;20260;-71
2022/10/14 04:45:35;;;;;;;8.47;7.83;;;16.00;99.90;;;;;;5032743;28;20936;-71
2022/10/14 04:48:00;;;;;;;10.67;9.67;;;16.00;99.90;;;;;;5016581;28;20369;-71
2022/10/14 04:50:26;;;;;;;9.83;8.30;;;16.00;99.90;;;;;;4995696;28;20174;-71
2022/10/14 04:52:52;;;;;;;9.00;8.13;;;16.00;99.90;;;;;;5012737;28;20229;-72
2022/10/14 04:55:17;;;;;;;9.97;9.07;;;16.00;99.90;;;;;;4995372;28;20229;-71
2022/10/14 04:57:43;;;;;;;10.60;9.60;;;16.00;99.90;;;;;;4978782;28;20175;-72
2022/10/14 05:00:11;;;;;;;9.23;8.50;;;16.00;99.90;;;;;;5013105;28;20175;-71
2022/10/14 05:02:37;;;;;;;10.00;9.10;;;16.00;99.90;;;;;;5022553;28;20177;-71
2022/10/14 05:05:04;;;;;;;10.40;9.27;;;16.00;99.90;;;;;;5013523;28;20486;-71
2022/10/14 05:07:30;;;;;;;9.67;8.73;;;16.00;99.90;;;;;;5032159;28;20963;-71
2022/10/14 05:09:56;;;;;;;9.90;9.00;;;16.00;99.90;;;;;;5032000;28;20427;-71
2022/10/14 05:12:21;;;;;;;9.97;8.90;;;16.00;99.90;;;;;;5032350;28;20501;-71
2022/10/14 05:14:47;;;;;;;10.33;9.33;;;16.00;99.90;;;;;;5031952;28;20181;-72
2022/10/14 05:17:13;;;;;;;10.90;9.90;;;16.00;99.90;;;;;;5032622;28;20184;-71
2022/10/14 05:19:39;;;;;;;9.60;8.70;;;16.00;99.90;;;;;;5032497;28;20600;-71
2022/10/14 05:22:04;;;;;;;9.77;8.80;;;16.10;99.90;;;;;;5031196;28;20676;-71
2022/10/14 05:24:33;;;;;;;9.67;8.77;;;16.10;99.90;;;;;;4965108;28;20178;-71
2022/10/14 05:26:59;;;;;;;10.73;9.73;;;16.10;99.90;;;;;;5018024;28;20693;-71
2022/10/14 05:29:25;;;;;;;9.70;8.80;;;16.10;99.90;;;;;;5036488;28;20495;-71
2022/10/14 05:31:50;;;;;;;12.00;10.43;;;16.10;99.90;;;;;;5009767;28;20421;-72
2022/10/14 05:34:16;;;;;;;9.97;9.07;;;16.00;99.90;;;;;;5015814;28;20241;-72
2022/10/14 05:36:42;;;;;;;11.10;10.00;;;16.10;99.90;;;;;;5016005;28;20182;-71
2022/10/14 05:39:08;;;;;;;11.27;10.10;;;16.10;99.90;;;;;;5015985;28;20175;-70
2022/10/14 05:41:33;;;;;;;11.93;10.83;;;16.10;99.90;;;;;;4998484;28;20179;-69
2022/10/14 05:43:59;;;;;;;12.03;10.50;;;16.10;99.90;;;;;;4999825;28;20503;-70
2022/10/14 05:46:25;;;;;;;15.83;11.77;;;16.00;99.90;;;;;;5012908;28;20218;-69
2022/10/14 05:48:50;;;;;;;14.57;11.87;;;16.10;99.90;;;;;;5014191;28;20181;-70
2022/10/14 05:51:19;;;;;;;12.67;11.33;;;16.00;99.90;;;;;;5016403;28;20528;-69
2022/10/14 05:53:46;;;;;;;13.20;10.53;;;16.00;99.90;;;;;;5014855;28;20174;-76
2022/10/14 05:56:12;;;;;;;12.33;11.13;;;16.00;99.90;;;;;;5016381;28;20418;-69
2022/10/14 05:58:38;;;;;;;11.90;10.70;;;16.00;99.90;;;;;;4996975;28;20416;-69
2022/10/14 06:01:06;;;;;;;13.97;11.67;;;16.00;99.90;;;;;;5007557;28;20833;-69
2022/10/14 06:03:32;;;;;;;12.60;11.30;;;16.00;99.90;;;;;;5015215;28;20405;-69
2022/10/14 06:05:58;;;;;;;11.77;10.57;;;16.00;99.90;;;;;;5016034;28;20483;-69
2022/10/14 06:08:26;;;;;;;13.37;10.73;;;16.00;99.90;;;;;;5030620;28;20424;-69
2022/10/14 06:10:52;;;;;;;12.47;11.27;;;16.00;99.90;;;;;;5028907;28;20695;-69
2022/10/14 06:13:19;;;;;;;10.00;9.10;;;16.00;99.90;;;;;;5034185;28;20502;-70
2022/10/14 06:15:44;;;;;;;10.93;9.83;;;16.00;99.90;;;;;;5026570;28;20188;-69
2022/10/14 06:18:10;;;;;;;11.13;10.07;;;16.10;99.90;;;;;;4963349;28;20409;-69
2022/10/14 06:20:36;;;;;;;11.97;10.30;;;16.10;99.90;;;;;;5015654;28;20181;-69
2022/10/14 06:23:02;;;;;;;11.67;10.27;;;16.10;99.90;;;;;;5018659;28;20327;-69
2022/10/14 06:25:28;;;;;;;11.70;10.60;;;16.10;99.90;;;;;;5017981;28;20205;-69
2022/10/14 06:27:54;;;;;;;9.90;8.90;;;16.10;99.90;;;;;;5030705;28;20183;-70
2022/10/14 06:30:20;;;;;;;9.97;9.17;;;16.10;99.90;;;;;;5000625;28;20948;-69
2022/10/14 06:32:46;;;;;;;11.57;10.43;;;16.20;99.90;;;;;;5014779;28;20581;-69
2022/10/14 06:35:12;;;;;;;11.57;10.47;;;16.20;99.90;;;;;;5022636;28;20515;-69
2022/10/14 06:37:38;;;;;;;10.90;9.90;;;16.20;99.90;;;;;;5021574;28;20219;-69
2022/10/14 06:40:04;;;;;;;10.30;9.40;;;16.20;99.90;;;;;;5019040;28;20178;-69
2022/10/14 06:42:30;;;;;;;10.33;9.40;;;16.30;99.90;;;;;;5017580;28;20522;-70
2022/10/14 06:44:55;;;;;;;9.00;8.17;;;16.20;99.90;;;;;;5014065;28;20485;-70
2022/10/14 06:47:21;;;;;;;9.20;8.40;;;16.30;99.90;;;;;;5030132;28;20211;-69
2022/10/14 06:49:47;;;;;;;9.03;8.03;;;16.40;99.90;;;;;;5016232;28;20190;-68
2022/10/14 06:52:13;;;;;;;9.23;8.37;;;16.60;99.90;;;;;;4966047;28;20241;-68
2022/10/14 06:54:38;;;;;;;8.00;7.40;;;16.70;99.90;;;;;;5032743;28;21002;-67
2022/10/14 06:57:05;;;;;;;7.80;7.10;;;16.70;99.90;;;;;;5032223;28;20252;-68
2022/10/14 06:59:30;;;;;;;8.50;7.70;;;16.80;99.90;;;;;;5033451;28;20190;-70
2022/10/14 07:01:56;;;;;;;8.70;8.00;;;16.80;99.90;;;;;;5015889;28;20422;-71
2022/10/14 07:04:22;;;;;;;7.80;7.07;;;16.80;99.90;;;;;;5032715;28;20186;-71
2022/10/14 07:06:48;;;;;;;7.30;6.70;;;17.00;99.90;;;;;;5023684;28;20230;-71
2022/10/14 07:09:14;;;;;;;6.33;5.73;;;17.20;99.90;;;;;;5014422;28;20254;-71
2022/10/14 07:11:41;;;;;;;7.70;7.00;;;17.40;99.90;;;;;;5014760;28;20576;-71
2022/10/14 07:14:08;;;;;;;7.57;6.70;;;17.50;99.90;;;;;;5013587;28;20183;-71
2022/10/14 07:16:34;;;;;;;7.23;6.73;;;17.70;99.90;;;;;;5004939;28;20847;-71
2022/10/14 07:18:59;;;;;;;7.17;6.43;;;17.90;99.90;;;;;;5013353;28;20533;-71
2022/10/14 07:21:25;;;;;;;6.97;6.47;;;18.00;99.90;;;;;;5012913;28;20186;-72
2022/10/14 07:23:51;;;;;;;6.70;6.20;;;18.00;99.90;;;;;;5013178;28;20194;-72
2022/10/14 07:26:17;;;;;;;6.67;5.80;;;18.10;99.90;;;;;;4996796;28;20214;-71
2022/10/14 07:28:43;;;;;;;8.30;6.67;;;18.20;99.90;;;;;;5013523;28;20188;-71
2022/10/14 07:31:10;;;;;;;7.57;6.97;;;18.30;99.90;;;;;;5013775;28;20433;-71
2022/10/14 07:33:37;;;;;;;5.20;4.80;;;18.30;99.90;;;;;;5014662;28;20221;-71
2022/10/14 07:36:06;;;;;;;5.13;4.53;;;18.10;99.90;;;;;;5012380;28;20437;-71
2022/10/14 07:38:32;;;;;;;4.97;4.57;;;18.20;99.90;;;;;;4996340;28;20510;-71
2022/10/14 07:41:00;;;;;;;5.30;4.90;;;18.20;99.90;;;;;;4997457;28;20568;-71
2022/10/14 07:43:27;;;;;;;11.60;10.50;;;18.30;99.90;;;;;;4997474;28;20191;-71
2022/10/14 07:45:59;;;;;;;5.90;5.47;;;18.40;99.90;;;;;;4993829;28;20474;-72
2022/10/14 07:48:26;;;;;;;5.40;5.00;;;18.30;99.90;;;;;;4993496;28;20439;-71
2022/10/14 07:50:53;;;;;;;5.27;4.77;;;18.40;99.90;;;;;;4993447;28;20438;-78
2022/10/14 07:53:25;;;;;;;5.10;4.80;;;18.40;99.90;;;;;;4995674;28;20411;-68
2022/10/14 07:55:51;;;;;;;5.10;4.67;;;18.40;99.90;;;;;;5003796;28;20407;-74
2022/10/14 07:58:22;;;;;;;5.20;4.70;;;18.30;99.90;;;;;;4994011;28;20415;-68
2022/10/14 08:00:49;;;;;;;6.00;5.20;;;18.20;99.90;;;;;;5006277;28;20403;-72
2022/10/14 08:03:16;;;;;;;4.07;3.83;;;18.20;99.90;;;;;;5012545;28;20953;-67
2022/10/14 08:05:42;;;;;;;11.20;10.10;;;18.10;99.90;;;;;;5014350;28;20458;-67
2022/10/14 08:08:09;;;;;;;7.80;7.10;;;17.80;99.90;;;;;;5032908;28;20471;-68
2022/10/14 08:10:36;;;;;;;5.63;4.70;;;17.60;99.90;;;;;;5033410;28;20409;-68
2022/10/14 08:13:02;;;;;;;5.03;4.63;;;17.40;99.90;;;;;;5032820;28;20423;-68
2022/10/14 08:15:33;;;;;;;5.50;5.10;;;17.20;99.90;;;;;;5012069;28;20529;-67
2022/10/14 08:17:59;;;;;;;5.50;5.10;;;16.90;99.90;;;;;;5008806;28;20434;-68
2022/10/14 08:20:25;;;;;;;5.30;4.90;;;16.90;99.90;;;;;;5011769;28;21031;-69
2022/10/14 08:22:50;;;;;;;6.90;6.30;;;16.80;99.90;;;;;;4999405;28;20191;-67
2022/10/14 08:25:16;;;;;;;5.50;5.10;;;16.80;99.90;;;;;;5012751;28;20203;-68
2022/10/14 08:27:42;;;;;;;5.70;5.23;;;16.80;99.90;;;;;;5013565;28;20182;-68
2022/10/14 08:30:09;;;;;;;5.17;4.87;;;16.80;99.90;;;;;;5012373;28;20206;-66
2022/10/14 08:32:35;;;;;;;5.23;4.83;;;16.80;99.90;;;;;;5013034;28;20189;-66
2022/10/14 08:35:01;;;;;;;4.73;4.33;;;16.70;99.90;;;;;;5021801;28;20500;-66
2022/10/14 08:37:26;;;;;;;4.43;4.13;;;16.60;99.90;;;;;;5028493;28;20182;-66
2022/10/14 08:39:52;;;;;;;4.20;3.93;;;16.60;99.90;;;;;;5024506;28;20178;-66
2022/10/14 08:42:29;;;;;;;4.20;4.00;;;16.50;99.90;;;;;;5012290;28;20171;-66
2022/10/14 08:44:58;;;;;;;4.37;4.07;;;16.60;99.90;;;;;;5012444;28;20210;-67
2022/10/14 08:47:30;;;;;;;4.20;4.00;;;16.60;99.90;;;;;;5013179;28;20755;-65
2022/10/14 08:49:56;;;;;;;3.60;3.40;;;16.50;99.90;;;;;;4995980;28;20405;-66
2022/10/14 08:52:39;;;;;;;4.00;3.80;;;16.40;99.90;;;;;;5012788;28;20424;-65
2022/10/14 08:55:28;;;;;;;3.60;3.40;;;16.30;99.90;;;;;;5012161;28;20433;-69
2022/10/14 08:58:17;;;;;;;3.60;3.40;;;16.30;99.90;;;;;;4973339;28;20849;-70
2022/10/14 09:00:46;;;;;;;3.97;3.77;;;16.30;99.90;;;;;;5016122;28;20456;-66
2022/10/14 09:03:33;;;;;;;3.50;3.40;;;16.30;99.90;;;;;;5027466;28;20429;-65
2022/10/14 09:06:36;;;;;;;3.47;3.27;;;16.40;99.90;;;;;;5031693;28;20475;-66
2022/10/14 09:09:14;;;;;;;3.37;3.17;;;16.50;99.90;;;;;;4970881;28;20563;-66
2022/10/14 09:11:43;;;;;;;3.63;3.43;;;16.30;99.90;;;;;;5024651;28;20490;-65
2022/10/14 09:14:16;;;;;;;3.70;3.43;;;16.30;99.90;;;;;;5025688;28;20455;-66
2022/10/14 09:16:44;;;;;;;3.13;3.00;;;16.40;99.90;;;;;;5012733;28;20417;-66
2022/10/14 09:19:31;;;;;;;2.70;2.60;;;16.40;99.90;;;;;;5011245;28;20441;-65
2022/10/14 09:21:59;;;;;;;3.70;3.43;;;16.50;99.90;;;;;;5012181;28;20398;-66
2022/10/14 09:24:35;;;;;;;4.00;3.70;;;16.60;99.90;;;;;;5012113;28;20444;-66
2022/10/14 09:27:09;;;;;;;4.20;4.00;;;16.60;99.90;;;;;;5010670;28;20535;-68
2022/10/14 09:29:39;;;;;;;3.63;3.40;;;16.70;99.90;;;;;;5012438;28;20397;-66
2022/10/14 09:32:10;;;;;;;3.20;3.10;;;16.50;99.90;;;;;;5011803;28;20476;-66
2022/10/14 09:34:44;;;;;;;3.23;3.03;;;16.60;99.90;;;;;;5012708;28;20744;-66
2022/10/14 09:37:33;;;;;;;2.97;2.87;;;16.60;99.90;;;;;;5012015;28;20429;-65
2022/10/14 09:40:04;;;;;;;3.33;3.13;;;16.70;99.90;;;;;;5012114;28;20413;-66
2022/10/14 09:42:59;;;;;;;3.20;2.97;;;16.80;99.90;;;;;;5015357;28;20750;-65
2022/10/14 09:45:28;;;;;;;2.73;2.63;;;16.90;99.90;;;;;;5030166;28;20481;-65
2022/10/14 09:47:58;;;;;;;3.10;3.00;;;17.00;99.90;;;;;;5032356;28;20412;-65
2022/10/14 09:50:38;;;;;;;2.87;2.77;;;17.10;99.90;;;;;;5032300;28;20401;-65
2022/10/14 09:53:14;;;;;;;3.13;2.30;;;17.20;99.90;;;;;;4970693;28;20407;-66
2022/10/14 09:55:47;;;;;;;2.30;2.30;;;17.20;99.90;;;;;;4971251;28;20847;-65
2022/10/14 09:58:17;;;;;;;3.10;2.80;;;17.00;99.90;;;;;;4970665;28;20951;-65
2022/10/14 10:00:45;;;;;;;3.40;3.20;;;16.90;99.90;;;;;;4971275;28;20407;-65
2022/10/14 10:03:31;;;;;;;2.10;2.00;;;17.00;99.90;;;;;;4970533;28;20902;-65
2022/10/14 10:06:09;;;;;;;2.87;2.77;;;16.90;99.90;;;;;;4970953;28;20481;-65
2022/10/14 10:08:41;;;;;;;2.70;2.60;;;16.90;99.90;;;;;;4971103;28;20487;-65
2022/10/14 10:11:10;;;;;;;3.10;3.00;;;16.80;99.90;;;;;;4971240;28;20400;-65
2022/10/14 10:13:38;;;;;;;3.90;3.80;;;16.70;99.90;;;;;;4973040;28;20853;-65
2022/10/14 10:16:16;;;;;;;2.40;2.30;;;16.70;99.90;;;;;;4973836;28;20488;-65
2022/10/14 10:18:42;;;;;;;2.30;2.20;;;16.50;99.90;;;;;;4957948;28;20483;-65
2022/10/14 10:21:18;;;;;;;3.60;3.50;;;16.60;99.90;;;;;;4973199;28;20487;-65
2022/10/14 10:23:55;;;;;;;3.50;3.30;;;16.60;99.90;;;;;;4996725;28;20903;-65
2022/10/14 10:26:31;;;;;;;4.50;4.20;;;16.70;99.90;;;;;;5034285;28;20790;-65
2022/10/14 10:28:58;;;;;;;6.03;5.63;;;16.80;99.90;;;;;;5035424;28;20420;-65
2022/10/14 10:31:51;;;;;;;2.40;2.40;;;16.80;99.90;;;;;;5016258;28;20437;-69
2022/10/14 10:34:55;;;;;;;2.50;2.40;;;16.70;99.90;;;;;;5011302;28;20414;-65
2022/10/14 10:37:34;;;;;;;3.77;3.67;;;16.80;99.90;;;;;;5014088;28;20404;-69
2022/10/14 10:40:15;;;;;;;4.40;4.10;;;16.80;99.90;;;;;;5014895;28;20410;-72
2022/10/14 10:43:12;;;;;;;4.77;4.50;;;16.80;99.90;;;;;;4970787;28;20805;-69
2022/10/14 10:46:05;;;;;;;2.90;2.80;;;17.00;99.90;;;;;;5018682;28;20473;-67
2022/10/14 10:48:56;;;;;;;4.50;4.30;;;16.90;99.90;;;;;;5008680;28;20434;-66
2022/10/14 10:51:44;;;;;;;4.00;3.80;;;16.90;99.90;;;;;;5011579;28;20761;-66
2022/10/14 10:54:33;;;;;;;4.00;3.80;;;17.10;99.90;;;;;;5015927;28;20430;-67
2022/10/14 10:57:23;;;;;;;4.70;4.40;;;17.20;99.90;;;;;;5014880;28;20402;-66
2022/10/14 11:00:09;;;;;;;2.90;2.80;;;17.20;99.90;;;;;;5012694;28;20823;-67
2022/10/14 11:03:09;;;;;;;4.80;4.40;;;17.20;99.90;;;;;;4994687;28;20417;-67
2022/10/14 11:05:57;;;;;;;3.87;3.70;;;17.20;99.90;;;;;;5009949;28;20454;-66
2022/10/14 11:14:34;;;;;;;3.90;3.60;;;17.40;99.90;;;;;;5033928;28;20393;-67
2022/10/14 11:17:14;;;;;;;4.63;4.40;;;17.50;99.90;;;;;;5034634;28;20820;-66
2022/10/14 11:19:57;;;;;;;5.20;4.90;;;17.50;99.90;;;;;;5034488;28;20877;-66
2022/10/14 11:22:27;;;;;;;5.70;5.20;;;17.50;99.90;;;;;;5032186;28;20437;-67
2022/10/14 11:25:34;;;;;;;5.50;5.00;;;17.50;99.90;;;;;;5034067;28;20484;-66
2022/10/14 11:28:09;;;;;;;7.37;6.77;;;17.50;99.90;;;;;;5025123;28;20434;-66
2022/10/14 11:30:52;;;;;;;7.23;6.73;;;17.20;99.90;;;;;;5034323;28;20427;-66
2022/10/14 11:33:26;;;;;;;6.77;6.27;;;17.30;99.90;;;;;;5032252;28;20519;-66
2022/10/14 11:36:26;;;;;;;8.60;7.90;;;17.20;99.90;;;;;;5029340;28;20437;-67
2022/10/14 11:39:27;;;;;;;9.07;8.27;;;17.20;99.90;;;;;;5033776;28;20421;-67
2022/10/14 11:42:25;;;;;;;8.30;7.53;;;17.20;99.90;;;;;;5005746;28;20429;-67
2022/10/14 11:45:09;;;;;;;9.07;8.17;;;17.20;99.90;;;;;;5025452;28;20441;-66
2022/10/14 11:47:38;;;;;;;8.43;7.70;;;17.20;99.90;;;;;;5019731;28;20784;-66
2022/10/14 11:50:35;;;;;;;6.37;5.80;;;17.30;99.90;;;;;;5033484;28;20412;-66
2022/10/14 11:53:16;;;;;;;7.83;7.23;;;17.20;99.90;;;;;;5033492;28;20508;-66
2022/10/14 11:56:03;;;;;;;7.27;6.57;;;17.20;99.90;;;;;;5033753;28;20412;-66
2022/10/14 11:58:33;;;;;;;9.10;7.03;;;17.20;99.90;;;;;;5033068;28;20409;-66
2022/10/14 12:01:15;;;;;;;7.23;6.30;;;17.20;99.90;;;;;;4972640;28;20413;-66
2022/10/14 12:04:11;;;;;;;6.73;5.80;;;17.30;99.90;;;;;;4956379;28;20459;-66
2022/10/14 12:06:59;;;;;;;6.87;6.30;;;17.30;99.90;;;;;;4972198;28;20856;-66
2022/10/14 12:09:35;;;;;;;8.13;6.90;;;17.30;99.90;;;;;;4971884;28;20810;-66
2022/10/14 12:12:06;;;;;;;7.90;7.27;;;17.40;99.90;;;;;;4972752;28;20455;-66
2022/10/14 12:14:38;;;;;;;8.20;7.37;;;17.20;99.90;;;;;;4971860;28;20416;-67
2022/10/14 12:17:23;;;;;;;6.53;5.90;;;17.20;99.90;;;;;;4952951;29;20479;-66
2022/10/14 12:19:50;;;;;;;7.37;6.70;;;17.30;99.90;;;;;;4953000;29;20786;-66
2022/10/14 12:22:25;;;;;;;7.37;6.77;;;17.50;99.90;;;;;;4952261;29;20500;-66
2022/10/14 12:24:57;;;;;;;7.20;6.60;;;17.50;99.90;;;;;;4952730;29;20558;-66
2022/10/14 12:27:25;;;;;;;7.63;7.00;;;17.30;99.90;;;;;;4952240;29;20440;-66
2022/10/14 12:29:56;;;;;;;7.20;6.60;;;17.20;99.90;;;;;;4952697;29;20459;-66
2022/10/14 12:32:26;;;;;;;6.97;6.13;;;17.20;99.90;;;;;;4952224;29;20461;-66
2022/10/14 12:34:53;;;;;;;8.03;7.30;;;17.20;99.90;;;;;;4952334;28;20413;-66
2022/10/14 12:37:30;;;;;;;7.43;6.73;;;17.20;99.90;;;;;;4962369;28;20443;-67
2022/10/14 12:40:02;;;;;;;7.97;7.23;;;17.10;99.90;;;;;;5032963;28;20415;-66
2022/10/14 12:42:51;;;;;;;8.13;7.40;;;17.20;99.90;;;;;;5032046;28;20421;-66
2022/10/14 12:45:22;;;;;;;7.50;6.33;;;17.10;99.90;;;;;;5032338;28;20468;-66
2022/10/14 12:48:20;;;;;;;6.43;5.83;;;17.10;99.90;;;;;;5015339;28;20429;-66
2022/10/14 12:50:47;;;;;;;7.90;7.20;;;17.10;99.90;;;;;;5032863;28;20412;-66
2022/10/14 12:53:28;;;;;;;6.90;6.33;;;17.10;99.90;;;;;;5032210;28;20405;-66
2022/10/14 12:56:00;;;;;;;7.33;6.30;;;17.10;99.90;;;;;;5032595;28;20827;-66
2022/10/14 12:58:36;;;;;;;7.90;6.87;;;17.10;99.90;;;;;;5032150;28;20403;-66
2022/10/14 13:01:22;;;;;;;6.40;6.00;;;17.10;99.90;;;;;;5014410;28;20433;-66
2022/10/14 13:04:01;;;;;;;7.20;6.70;;;17.10;99.90;;;;;;5032139;28;20839;-66
2022/10/14 13:06:32;;;;;;;5.70;5.20;;;16.90;99.90;;;;;;5031914;28;20560;-66
2022/10/14 13:09:15;;;;;;;6.97;6.37;;;16.90;99.90;;;;;;5032580;28;20779;-66